Terminal Aerodrome Forecast
Issued by NWS

Home | Current Version | Previous Version | Graphics & Text | Print | Product List | Glossary Off
Versions: 1 2 3 4 5 6 7 8 9 10 11 12

913
FTUS43 KOAX 161120
TAFCDR
TAF
KCDR 161120Z 1612/1712 VRB04KT P6SM OVC070
     FM161800 30012KT P6SM BKN035=

USA.gov is the U.S. government's official web portal to all federal, state and local government web resources and services.